1956 Severe Tropical Cyclone NOT_NAMED (1956016S15140)


IBTrACS version v04r00. Visit IBTrACS website for data access.
Please direct all questions to the IBTrACS Q and A forum

Storm track - Intensity - Wind Radii - Intensity Data - Source Data - All data

Summary Information

Storm ID 1956016S15140
Start Jan 15 23Z
Landfall Jan 18 09Z
Max Intensity 75 kt (Jan 26 00Z), 968 mb (Jan 25 23Z)
End Jan 29 06Z
ATCF IDs ,SH111956,SH131956
Track status Best track data.

Storm track plot

Map of storm track

Intensity plots

Map of storm track

Radial wind information

No radial wind information for this storm


Position and Intensity Table

BASIN ISO_TIME_________ NATURE LAT LON WMO PRES BOM PRES DS824 WIND DS824 PRES
degrees north degrees east mb mb kts mb
SP 1956-01-15 23:00:00 NR -15.00 140.00 1000 1000
SP 1956-01-16 00:00:00 TS -15.11 139.96 30 1000
SP 03:00:00 TS -15.47 139.82
SP 06:00:00 TS -15.83 139.70
SP 09:00:00 TS -16.19 139.63
SP 12:00:00 TS -16.53 139.57
SP 15:00:00 TS -16.85 139.56
SP 18:00:00 TS -17.15 139.59
SP 21:00:00 TS -17.42 139.69
SP 22:00:00 TS -17.50 139.74
SP 23:00:00 TS -17.52 139.78 994 994
SP 1956-01-17 00:00:00 TS -17.46 139.80 40 994
SP 03:00:00 TS -17.49 139.90
SP 06:00:00 TS -17.48 139.98
SP 09:00:00 TS -17.45 140.04
SP 11:00:00 TS -17.44 140.08
SP 12:00:00 TS -17.43 140.10
SP 15:00:00 TS -17.40 140.18
SP 18:00:00 TS -17.36 140.26
SP 21:00:00 TS -17.33 140.32
SP 23:00:00 TS -17.32 140.38 998 998
SP 1956-01-18 00:00:00 TS -17.32 140.42 35 998
SP 03:00:00 TS -17.35 140.61
SP 05:00:00 TS -17.36 140.75
SP 06:00:00 TS -17.37 140.82
SP 09:00:00 TS -17.37 141.04
SP 11:00:00 TS -17.36 141.16
SP 12:00:00 TS -17.36 141.20
SP 15:00:00 TS -17.35 141.24
SP 18:00:00 TS -17.35 141.28
SP 21:00:00 TS -17.37 141.40
SP 23:00:00 TS -17.42 141.57 994 994
SP 1956-01-19 00:00:00 TS -17.46 141.69 993 40 994
SP 03:00:00 TS -17.65 142.20 992 42 993
SP 05:00:00 TS -17.80 142.60 992 992 44 992
SP 06:00:00 TS -17.86 142.78 992 45 992
SP 09:00:00 TS -17.96 143.26 992 43 992
SP 11:00:00 TS -18.02 143.57 993 42 993
SP 12:00:00 TS -18.06 143.72 993 42 993
SP 15:00:00 TS -18.28 144.19 994 41 994
SP 17:00:00 TS -18.51 144.60 995 995 40 994
SP 18:00:00 TS -18.69 144.86 995 40 995
SP 21:00:00 TS -19.29 145.80 996 37 996
SP 23:00:00 TS -19.69 146.42 997 997 35 996
SP 1956-01-20 00:00:00 TS -19.87 146.70 996 35 997
SP 02:00:00 TS -20.24 147.17 996 996 33 997
SP 03:00:00 TS -20.40 147.35 996 32 998
SP 06:00:00 TS -20.81 147.73 997 30 999
SP 08:00:00 TS -21.04 147.97 999 999 28 1000
SP 09:00:00 TS -21.13 148.15 999 27 1000
SP 11:00:00 TS -21.21 148.51 1002 1002 25 1001
SP 12:00:00 TS -21.19 148.62 1001 25 1002
SP 15:00:00 TS -20.65 148.95 1000 1000 27 1001
SP 17:00:00 TS -19.98 149.26 1000 1000 29 1000
SP 18:00:00 TS -19.60 149.26 1000 30 1000
SP 21:00:00 TS -19.13 149.47 1000 30 1000
SP 23:00:00 TS -18.88 149.53 1000 1000 30 1000
SP 1956-01-21 00:00:00 TS -18.73 149.51 1000 30 1000
SP 02:00:00 TS -18.49 149.67 1000 1000 30 1000
SP 03:00:00 TS -18.38 149.79 1000 30 1000
SP 05:00:00 TS -18.20 150.03 1000 1000 30 1000
SP 06:00:00 TS -18.13 150.13 1000 30 1000
SP 09:00:00 TS -18.02 150.32 1000 30 1000
SP 11:00:00 TS -18.01 150.43 1001 1001 30 1000
SP 12:00:00 TS -18.02 150.50 1001 30 1001
SP 15:00:00 TS -18.11 150.78 1001 28 1001
SP 18:00:00 TS -18.25 151.06 1001 27 1001
SP 21:00:00 TS -18.35 151.32 1001 26 1001
SP 23:00:00 TS -18.40 151.43 1002 1002 25 1001
SP 1956-01-22 00:00:00 TS -18.41 151.44 1001 25 1002
SP 03:00:00 TS -18.44 151.32 1000 27 1001
SP 05:00:00 TS -18.43 151.18 1000 1000 29 1000
SP 06:00:00 TS -18.41 151.10 1000 30 1000
SP 09:00:00 TS -18.33 150.86 1000 30 1000
SP 11:00:00 TS -18.24 150.71 1000 30 1000
SP 12:00:00 TS -18.18 150.64 1000 30 1000
SP 15:00:00 TS -17.99 150.48 1000 30 1000
SP 17:00:00 TS -17.86 150.41 1000 1000 30 1000
SP 18:00:00 TS -17.80 150.39 1000 30 1000
SP 21:00:00 TS -17.64 150.35 1000 30 1000
SP 23:00:00 TS -17.55 150.36 1000 1000 30 1000
SP 1956-01-23 00:00:00 TS -17.50 150.38 999 30 1000
SP 03:00:00 TS -17.38 150.48 998 32 999
SP 05:00:00 TS -17.30 150.58 998 998 34 998
SP 06:00:00 TS -17.27 150.64 998 35 998
SP 09:00:00 TS -17.19 150.84 998 35 998
SP 11:00:00 TS -17.15 150.99 998 998 35 998
SP 12:00:00 TS -17.14 151.06 998 35 998
SP 15:00:00 TS -17.13 151.27 998 35 998
SP 18:00:00 TS -17.15 151.49 998 35 998
SP 21:00:00 TS -17.21 151.73 998 35 998
SP 23:00:00 TS -17.27 151.91 998 998 35 998
SP 1956-01-24 00:00:00 TS -17.30 152.02 35 998
SP 03:00:00 TS -17.41 152.40
SP 06:00:00 TS -17.59 152.83
SP 09:00:00 TS -17.82 153.26
SP 11:00:00 TS -18.01 153.53
SP 12:00:00 TS -18.11 153.66
SP 15:00:00 TS -18.49 154.03
SP 18:00:00 TS -18.89 154.35
SP 21:00:00 TS -19.24 154.62
SP 23:00:00 TS -19.45 154.78 986 986
SP 1956-01-25 00:00:00 TS -19.55 154.86 50 986
SP 03:00:00 TS -19.82 155.09
SP 06:00:00 TS -20.11 155.35
SP 09:00:00 TS -20.47 155.68
SP 11:00:00 TS -20.74 155.93
SP 12:00:00 TS -20.88 156.06
SP 15:00:00 TS -21.33 156.45
SP 18:00:00 TS -21.78 156.84
SP 21:00:00 TS -22.20 157.25
SP 23:00:00 TS -22.48 157.53 968 968
SP 1956-01-26 00:00:00 TS -22.63 157.68 75 968
SP 03:00:00 TS -23.11 158.12
SP 06:00:00 TS -23.62 158.54
SP 09:00:00 TS -24.14 158.92
SP 11:00:00 TS -24.50 159.15
SP 12:00:00 TS -24.68 159.27
SP 15:00:00 TS -25.24 159.63
SP 18:00:00 TS -25.81 159.97
SP 21:00:00 TS -26.40 160.28
SP 23:00:00 TS -26.78 160.46 1000 1000
SP 1956-01-27 00:00:00 TS -26.97 160.52 30 1000
SP 03:00:00 TS -27.47 160.65
SP 06:00:00 TS -27.91 160.73
SP 09:00:00 TS -28.29 160.78
SP 11:00:00 TS -28.53 160.80
SP 12:00:00 TS -28.64 160.80
SP 15:00:00 TS -29.00 160.82
SP 18:00:00 TS -29.37 160.83
SP 21:00:00 TS -29.71 160.82
SP 23:00:00 TS -29.97 160.85 996 996
SP 1956-01-28 00:00:00 TS -30.13 160.89
SP 03:00:00 TS -30.69 160.97
SP 06:00:00 TS -31.41 161.14
SP 09:00:00 TS -32.32 161.40
SP 11:00:00 TS -32.98 161.66
SP 12:00:00 TS -33.26 161.83
SP 15:00:00 TS -34.24 162.42
SP 18:00:00 TS -35.19 163.08
SP 21:00:00 TS -36.07 163.69
SP 23:00:00 TS -36.64 164.07
SP 1956-01-29 00:00:00 TS -36.91 164.20
SP 03:00:00 TS -37.77 164.84
SP 06:00:00 TS -38.60 165.50

Source Information

Agency Information
USA bsh111956.txt::bsh131956.txt
TOKYO
CMA
HKO
NEWDELHI
REUNION
BOM IDCKMSTM0S.csv:Line=2050:unnamed
NADI
WELLINGTON
DS824 aus_area.dat:217:NOT NAMED
TD9636 cons_worldwide_trop_cyclone_18710101-19891231-006:Line=4426
TD9635
NEUMANN
MLC

All available IBTrACS Data

SEASON BASIN SUBBASIN ISO_TIME_________ NATURE LAT LON WMO PRES WMO AGENCY DIST2LAND LANDFALL IFLAG USA AGENCY USA ATCF_ID USA LAT USA LON USA SSHS BOM LAT BOM LON BOM PRES BOM PRES_METHOD DS824 LAT DS824 LON DS824 STAGE DS824 WIND DS824 PRES TD9636 LAT TD9636 LON TD9636 STAGE STORM SPEED STORM DIR
Year degrees north degrees east mb km km degrees north degrees east 1 degrees north degrees east mb degrees north degrees east kts mb degrees north degrees east kts degrees
1956 SP EA 1956-01-15 23:00:00 NR -15.00 140.00 1000 bom 170 167 ______O_______ -1 -15.00 140.00 1000 7 195
1956 SP EA 1956-01-16 00:00:00 TS -15.11 139.96 167 167 ______P__O____ -1 -15.11 139.93 -15.10 140.00 TC 30 1000 8 200
1956 SP EA 03:00:00 TS -15.47 139.82 177 144 ______P__P____ -1 -15.45 139.74 -15.50 139.94 TC 8 199
1956 SP EA 06:00:00 TS -15.83 139.70 144 99 ______P__P____ -1 -15.78 139.56 -15.90 139.89 TC 8 194
1956 SP EA 09:00:00 TS -16.19 139.63 99 70 ______P__P____ -1 -16.11 139.43 -16.27 139.84 TC 7 190
1956 SP EA 12:00:00 TS -16.53 139.57 70 48 ______P__P____ -1 -16.44 139.35 -16.63 139.80 TC 7 186
1956 SP EA 15:00:00 TS -16.85 139.56 44 35 ______P__P____ -1 -16.76 139.34 -16.94 139.77 TC 6 0
1956 SP EA 18:00:00 TS -17.15 139.59 35 15 ______P__P____ -1 -17.08 139.42 -17.22 139.76 TC 6 168
1956 SP EA 21:00:00 TS -17.42 139.69 15 10 ______P__P____ -1 -17.40 139.61 -17.44 139.77 TC 6 158
1956 SP EA 22:00:00 TS -17.50 139.74 bom 10 10 ______O__P____ -1 -17.50 139.70 -17.50 139.78 TC 4 141
1956 SP EA 23:00:00 TS -17.52 139.78 994 bom 11 11 ______O__PO___ -1 -17.60 139.80 994 -17.55 139.79 TC -17.10 139.70 2 2 59
1956 SP EA 1956-01-17 00:00:00 TS -17.46 139.80 11 11 O_____P__OP___ jtwc_sh SH111956 -17.10 139.70 -1 -17.69 139.89 -17.60 139.80 TC 40 994 -17.11 139.73 2 2 72
1956 SP EA 03:00:00 TS -17.49 139.90 15 15 P_____P__PP___ SH111956 -17.16 139.81 -1 -17.86 140.10 -17.70 139.86 TC -17.14 139.81 2 2 94
1956 SP EA 06:00:00 TS -17.48 139.98 22 22 O_____P__PP___ jtwc_sh SH111956 -17.20 139.90 -1 -17.93 140.23 -17.74 139.93 TC -17.17 139.89 2 1 75
1956 SP EA 09:00:00 TS -17.45 140.04 22 22 P_____P__PP___ SH111956 -17.21 139.95 -1 -17.92 140.30 -17.73 140.03 TC -17.19 139.96 2 1 69
1956 SP EA 11:00:00 TS -17.44 140.08 33 33 P_____P__PO___ SH111956 -17.20 139.98 -1 -17.87 140.33 -17.71 140.10 TC -17.20 140.00 2 1 67
1956 SP EA 12:00:00 TS -17.43 140.10 33 33 O_____P__PP___ jtwc_sh SH111956 -17.20 140.00 -1 -17.85 140.34 -17.70 140.14 TC -17.20 140.02 2 2 65
1956 SP EA 15:00:00 TS -17.40 140.18 33 33 P_____P__PP___ SH111956 -17.20 140.10 -1 -17.74 140.36 -17.65 140.25 TC -17.20 140.06 2 2 66
1956 SP EA 18:00:00 TS -17.36 140.26 33 33 O_____P__PP___ jtwc_sh SH111956 -17.20 140.20 -1 -17.63 140.39 -17.59 140.37 TC -17.20 140.12 2 2 64
1956 SP EA 21:00:00 TS -17.33 140.32 44 39 P_____P__PP___ SH111956 -17.19 140.23 -1 -17.54 140.44 -17.53 140.49 TC -17.20 140.21 2 2 69
1956 SP EA 23:00:00 TS -17.32 140.38 998 bom 39 39 P_____O__PO___ SH111956 -17.19 140.26 -1 -17.50 140.50 998 -17.51 140.56 TC -17.20 140.30 1 2 84
1956 SP EA 1956-01-18 00:00:00 TS -17.32 140.42 39 30 O_____P__OP___ jtwc_sh SH111956 -17.20 140.30 -1 -17.50 140.55 -17.50 140.60 TC 35 998 -17.21 140.37 1 3 97
1956 SP EA 03:00:00 TS -17.35 140.61 30 15 P_____P__PP___ SH111956 -17.25 140.51 -1 -17.50 140.70 -17.50 140.70 TC -17.23 140.61 1 4 98
1956 SP EA 05:00:00 TS -17.36 140.75 bom 10 10 P_____O__PP___ SH111956 -17.29 140.70 -1 -17.50 140.80 -17.50 140.77 TC -17.25 140.79 1 4 97
1956 SP EA 06:00:00 TS -17.37 140.82 10 0 O_____P__OP___ jtwc_sh SH111956 -17.30 140.80 -1 -17.49 140.83 -17.50 140.80 TC -17.26 140.88 1 4 91
1956 SP EA 09:00:00 TS -17.37 141.04 0 0 P_____P__PP___ SH111956 -17.31 141.14 -1 -17.45 140.90 -17.49 140.87 TC -17.29 141.15 1 4 88
1956 SP EA 11:00:00 TS -17.36 141.16 0 0 P_____P__PO___ SH111956 -17.30 141.33 -1 -17.43 140.93 -17.48 140.91 TC -17.30 141.30 1 3 85
1956 SP EA 12:00:00 TS -17.36 141.20 0 0 O_____P__PP___ jtwc_sh SH111956 -17.30 141.40 -1 -17.41 140.95 -17.47 140.93 TC -17.29 141.33 1 1 76
1956 SP EA 15:00:00 TS -17.35 141.24 0 0 P_____P__PP___ SH111956 -17.30 141.41 -1 -17.39 141.00 -17.48 141.00 TC -17.26 141.36 1 1 85
1956 SP EA 18:00:00 TS -17.35 141.28 0 0 O_____P__PP___ jtwc_sh SH111956 -17.30 141.40 -1 -17.41 141.09 -17.51 141.10 TC -17.23 141.39 1 2 100
1956 SP EA 21:00:00 TS -17.37 141.40 0 0 P_____P__PP___ SH111956 -17.27 141.50 -1 -17.50 141.24 -17.58 141.26 TC -17.25 141.52 1 3 104
1956 SP EA 23:00:00 TS -17.42 141.57 994 bom 0 0 P_____O__PO___ SH111956 -17.28 141.67 -1 -17.60 141.40 994 -17.65 141.41 TC -17.30 141.70 1 6 108
1956 SP EA 1956-01-19 00:00:00 TS -17.46 141.69 0 0 O_____P__OP___ jtwc_sh SH111956 -17.30 141.80 -1 -17.68 141.51 993 -17.70 141.50 TC 40 994 -17.34 141.86 1 10 111
1956 SP EA 03:00:00 TS -17.65 142.20 0 0 P_____P__PP___ SH111956 -17.46 142.42 -1 -17.96 141.86 992 -17.91 141.83 TC 42 993 -17.50 142.46 1 11 111
1956 SP EA 05:00:00 TS -17.80 142.60 992 bom 0 0 P_____O__PP___ SH111956 -17.61 142.94 -1 -18.10 142.10 992 -18.04 142.07 TC 44 992 -17.64 142.93 1 12 110
1956 SP EA 06:00:00 TS -17.86 142.78 0 0 O_____P__OP___ jtwc_sh SH111956 -17.70 143.20 -1 -18.08 142.14 992 -18.10 142.20 TC 45 992 -17.72 143.18 1 10 104
1956 SP EA 09:00:00 TS -17.96 143.26 0 0 P_____P__PP___ SH111956 -17.97 143.93 -1 -17.85 142.15 992 -18.00 142.38 TC 43 992 -17.99 143.93 1 9 102
1956 SP EA 11:00:00 TS -18.02 143.57 0 0 P_____P__PO___ SH111956 -18.18 144.39 -1 -17.66 142.17 993 -17.88 142.50 TC 42 993 -18.20 144.40 2 9 104
1956 SP EA 12:00:00 TS -18.06 143.72 0 0 O_____P__PP___ jtwc_sh SH111956 -18.30 144.60 -1 -17.59 142.22 993 -17.83 142.58 TC 42 993 -18.30 144.59 2 10 113
1956 SP EA 15:00:00 TS -18.28 144.19 0 0 P_____P__PP___ SH111956 -18.69 145.13 -1 -17.56 142.62 994 -17.79 142.99 TC 41 994 -18.64 145.11 2 11 118
1956 SP EA 17:00:00 TS -18.51 144.60 995 bom 0 0 P_____O__PP___ SH111956 -18.97 145.44 -1 -17.80 143.20 995 -17.95 143.47 TC 40 994 -18.89 145.43 2 15 123
1956 SP EA 18:00:00 TS -18.69 144.86 0 0 O_____P__OP___ jtwc_sh SH111956 -19.10 145.60 -1 -18.11 143.70 995 -18.10 143.80 TC 40 995 -19.02 145.59 2 21 124
1956 SP EA 21:00:00 TS -19.29 145.80 0 0 P_____P__PP___ SH111956 -19.44 146.09 -1 -19.21 145.46 996 -18.96 145.30 TC 37 996 -19.42 146.07 2 21 124
1956 SP EA 23:00:00 TS -19.69 146.42 997 bom 0 0 P_____O__PO___ SH111956 -19.67 146.42 -1 -19.80 146.50 997 -19.60 146.34 TC 35 996 -19.70 146.40 1 21 124
1956 SP EA 1956-01-20 00:00:00 TS -19.87 146.70 0 0 O_____P__OP___ jtwc_sh SH111956 -19.80 146.60 -1 -19.99 146.91 996 -19.90 146.80 TC 35 997 -19.88 146.59 1 18 128
1956 SP EA 02:00:00 TS -20.24 147.17 996 bom 0 0 P_____O__PP___ SH111956 -20.10 146.99 -1 -20.20 147.50 996 -20.52 147.38 TC 33 997 -20.27 146.99 1 16 131
1956 SP EA 03:00:00 TS -20.40 147.35 0 0 P_____P__PP___ SH111956 -20.25 147.20 -1 -20.23 147.57 996 -20.82 147.59 TC 32 998 -20.47 147.19 1 12 138
1956 SP EA 06:00:00 TS -20.81 147.73 0 0 O_____P__PP___ jtwc_sh SH111956 -20.70 147.80 -1 -20.09 147.29 997 -21.57 147.95 TC 30 999 -21.00 147.80 1 10 137
1956 SP EA 08:00:00 TS -21.04 147.97 999 bom 0 0 P_____O__PP___ SH111956 -21.05 148.16 -1 -20.00 147.30 999 -21.85 148.06 TC 28 1000 -21.25 148.18 1 10 129
1956 SP EA 09:00:00 TS -21.13 148.15 0 0 P_____P__PP___ SH111956 -21.20 148.34 -1 -20.03 147.62 999 -21.91 148.11 TC 27 1000 -21.34 148.36 1 11 109
1956 SP EA 11:00:00 TS -21.21 148.51 1002 bom 0 0 P_____O__PO___ SH111956 -21.39 148.66 -1 -20.10 148.30 1002 -21.79 148.22 TC 25 1001 -21.40 148.70 1 9 97
1956 SP EA 12:00:00 TS -21.19 148.62 0 0 O_____P__OP___ jtwc_sh SH111956 -21.40 148.80 -1 -20.22 148.37 1001 -21.60 148.30 TC 25 1002 -21.32 148.85 1 11 36
1956 SP EA 15:00:00 TS -20.65 148.95 1000 bom 11 10 P_____O__PP___ SH111956 -21.00 149.18 -1 -20.10 148.40 1000 -20.27 148.75 TC 27 1001 -20.87 149.23 1 16 26
1956 SP EA 17:00:00 TS -19.98 149.26 1000 bom 62 62 P_____O__PP___ SH111956 -20.54 149.40 -1 -19.00 149.00 1000 -19.35 149.05 TC 29 1000 -20.44 149.44 1 22 16
1956 SP EA 18:00:00 TS -19.60 149.26 94 94 O_____P__OP___ jtwc_sh SH111956 -20.30 149.50 -1 -18.74 149.26 1000 -19.00 149.20 TC 30 1000 -20.21 149.54 1 13 13
1956 SP EA 21:00:00 TS -19.13 149.47 152 152 P_____P__PP___ SH111956 -19.61 149.82 -1 -18.85 149.82 1000 -18.76 149.59 TC 30 1000 -19.51 149.82 1 9 20
1956 SP EA 23:00:00 TS -18.88 149.53 1000 bom 172 172 P_____O__PO___ SH111956 -19.18 150.01 -1 -19.00 150.00 1000 -18.80 149.86 TC 30 1000 -19.10 150.00 1 8 7
1956 SP EA 1956-01-21 00:00:00 TS -18.73 149.51 192 192 O_____P__OP___ jtwc_sh SH111956 -19.00 150.10 -1 -18.86 149.96 1000 -18.80 150.00 TC 30 1000 -18.96 150.10 1 8 19
1956 SP EA 02:00:00 TS -18.49 149.67 1000 bom 222 222 P_____O__PP___ SH111956 -18.72 150.27 -1 -18.50 150.00 1000 -18.53 150.37 TC 30 1000 -18.71 150.29 1 9 37
1956 SP EA 03:00:00 TS -18.38 149.79 237 237 P_____P__PP___ SH111956 -18.62 150.35 -1 -18.32 150.29 1000 -18.38 150.55 TC 30 1000 -18.60 150.38 1 9 49
1956 SP EA 05:00:00 TS -18.20 150.03 1000 bom 266 266 P_____O__PP___ SH111956 -18.46 150.51 -1 -18.00 151.00 1000 -18.10 150.88 TC 30 1000 -18.42 150.56 1 8 52
1956 SP EA 06:00:00 TS -18.13 150.13 281 281 O_____P__OP___ jtwc_sh SH111956 -18.40 150.60 -1 -17.91 151.15 1000 -18.00 151.00 TC 30 1000 -18.35 150.65 1 5 56
1956 SP EA 09:00:00 TS -18.02 150.32 301 301 P_____P__PP___ SH111956 -18.22 150.90 -1 -17.89 151.14 1000 -17.96 151.11 TC 30 1000 -18.22 150.92 1 4 66
1956 SP EA 11:00:00 TS -18.01 150.43 1001 bom 307 307 P_____O__PO___ SH111956 -18.18 151.10 -1 -18.00 151.00 1001 -18.04 151.10 TC 30 1000 -18.20 151.10 1 3 90
1956 SP EA 12:00:00 TS -18.02 150.50 313 310 O_____P__OP___ jtwc_sh SH111956 -18.20 151.20 -1 -18.05 151.07 1001 -18.10 151.10 TC 30 1001 -18.22 151.22 1 5 107
1956 SP EA 15:00:00 TS -18.11 150.78 323 322 P_____P__PP___ SH111956 -18.41 151.45 -1 -18.28 151.39 1001 -18.30 151.36 TC 28 1001 -18.38 151.61 1 6 114
1956 SP EA 18:00:00 TS -18.25 151.06 336 329 O_____P__PP___ jtwc_sh SH111956 -18.70 151.70 -1 -18.58 151.74 1001 -18.57 151.67 TC 27 1001 -18.62 151.95 1 6 115
1956 SP EA 21:00:00 TS -18.35 151.32 337 337 P_____P__PP___ SH111956 -18.88 152.10 -1 -18.86 151.98 1001 -18.83 151.90 TC 26 1001 -18.87 152.16 1 5 114
1956 SP EA 23:00:00 TS -18.40 151.43 1002 bom 345 345 P_____O__PO___ SH111956 -18.97 152.28 -1 -19.00 152.00 1002 -18.96 151.93 TC 25 1001 -19.00 152.20 1 3 120
1956 SP EA 1956-01-22 00:00:00 TS -18.41 151.44 345 337 O_____P__OP___ jtwc_sh SH111956 -19.00 152.30 -1 -19.05 151.93 1001 -19.00 151.90 TC 25 1002 -19.04 152.16 1 2 248
1956 SP EA 03:00:00 TS -18.44 151.32 337 329 P_____P__PP___ SH111956 -19.09 152.01 -1 -19.12 151.59 1000 -19.05 151.56 TC 27 1001 -19.12 151.88 1 3 267
1956 SP EA 05:00:00 TS -18.43 151.18 1000 bom 329 321 P_____O__PP___ SH111956 -19.11 151.68 -1 -19.10 151.30 1000 -19.03 151.26 TC 29 1000 -19.14 151.61 1 4 277
1956 SP EA 06:00:00 TS -18.41 151.10 321 306 O_____P__OP___ jtwc_sh SH111956 -19.10 151.50 -1 -19.07 151.15 1000 -19.00 151.10 TC 30 1000 -19.14 151.46 1 5 289
1956 SP EA 09:00:00 TS -18.33 150.86 314 299 P_____P__PP___ SH111956 -19.05 151.04 -1 -18.86 150.64 1000 -18.82 150.63 TC 30 1000 -19.08 150.99 1 5 295
1956 SP EA 11:00:00 TS -18.24 150.71 308 308 P_____P__PO___ SH111956 -18.96 150.74 -1 -18.66 150.29 1000 -18.65 150.32 TC 30 1000 -19.00 150.70 1 5 304
1956 SP EA 12:00:00 TS -18.18 150.64 301 301 O_____P__PP___ jtwc_sh SH111956 -18.90 150.60 -1 -18.55 150.12 1000 -18.54 150.17 TC 30 1000 -18.94 150.58 1 5 318
1956 SP EA 15:00:00 TS -17.99 150.48 313 313 P_____P__PP___ SH111956 -18.61 150.25 -1 -18.21 149.69 1000 -18.22 149.77 TC 30 1000 -18.69 150.24 1 5 326
1956 SP EA 17:00:00 TS -17.86 150.41 1000 bom 316 316 P_____O__PP___ SH111956 -18.40 150.07 -1 -18.00 149.50 1000 -18.00 149.57 TC 30 1000 -18.49 150.05 1 4 335
1956 SP EA 18:00:00 TS -17.80 150.39 326 326 O_____P__OP___ jtwc_sh SH111956 -18.30 150.00 -1 -17.91 149.45 1000 -17.90 149.50 TC 30 1000 -18.38 149.96 1 3 345
1956 SP EA 21:00:00 TS -17.64 150.35 345 340 P_____P__PP___ SH111956 -18.08 149.79 -1 -17.66 149.39 1000 -17.65 149.39 TC 30 1000 -18.08 149.77 1 3 0
1956 SP EA 23:00:00 TS -17.55 150.36 1000 bom 355 355 P_____O__PO___ SH111956 -17.96 149.71 -1 -17.50 149.40 1000 -17.48 149.39 TC 30 1000 -17.90 149.70 1 3 0
1956 SP EA 1956-01-23 00:00:00 TS -17.50 150.38 355 355 O_____P__OP___ jtwc_sh SH111956 -17.90 149.70 -1 -17.42 149.39 999 -17.40 149.40 TC 30 1000 -17.84 149.69 1 3 33
1956 SP EA 03:00:00 TS -17.38 150.48 370 370 P_____P__PP___ SH111956 -17.73 149.75 -1 -17.17 149.42 998 -17.13 149.45 TC 32 999 -17.69 149.73 1 3 44
1956 SP EA 05:00:00 TS -17.30 150.58 998 bom 385 385 P_____O__PP___ SH111956 -17.64 149.84 -1 -17.00 149.50 998 -16.97 149.54 TC 34 998 -17.60 149.81 1 4 56
1956 SP EA 06:00:00 TS -17.27 150.64 385 385 O_____P__OP___ jtwc_sh SH111956 -17.60 149.90 -1 -16.90 149.57 998 -16.90 149.60 TC 35 998 -17.57 149.86 1 4 65
1956 SP EA 09:00:00 TS -17.19 150.84 405 405 P_____P__PP___ SH111956 -17.50 150.09 -1 -16.62 149.86 998 -16.70 149.86 TC 35 998 -17.47 150.05 1 4 71
1956 SP EA 11:00:00 TS -17.15 150.99 998 bom 417 417 P_____O__PO___ SH111956 -17.44 150.23 -1 -16.50 150.10 998 -16.62 150.08 TC 35 998 -17.40 150.20 1 4 77
1956 SP EA 12:00:00 TS -17.14 151.06 432 432 O_____P__OP___ jtwc_sh SH111956 -17.40 150.30 -1 -16.48 150.21 998 -16.60 150.20 TC 35 998 -17.34 150.24 1 4 84
1956 SP EA 15:00:00 TS -17.13 151.27 444 444 P_____P__PP___ SH111956 -17.25 150.43 -1 -16.53 150.54 998 -16.63 150.53 TC 35 998 -17.17 150.38 1 4 92
1956 SP EA 18:00:00 TS -17.15 151.49 448 448 O_____P__PP___ jtwc_sh SH111956 -17.10 150.60 -1 -16.72 150.90 998 -16.79 150.88 TC 35 998 -17.02 150.57 1 4 100
1956 SP EA 21:00:00 TS -17.21 151.73 462 462 P_____P__PP___ SH111956 -16.97 150.82 -1 -17.00 151.26 998 -17.02 151.24 TC 35 998 -16.92 150.85 1 5 106
1956 SP EA 23:00:00 TS -17.27 151.91 998 bom 468 468 P_____O__PO___ SH111956 -16.91 151.05 -1 -17.20 151.50 998 -17.21 151.48 TC 35 998 -16.90 151.10 1 6 108
1956 SP EA 1956-01-24 00:00:00 TS -17.30 152.02 475 475 O_____P__OP___ jtwc_sh SH111956 -16.90 151.20 -1 -17.28 151.62 -17.30 151.60 TC 35 998 -16.89 151.27 1 7 107
1956 SP EA 03:00:00 TS -17.41 152.40 498 498 P_____P__PP___ SH111956 -16.89 151.86 -1 -17.54 151.99 -17.55 151.97 TC -16.92 151.87 1 8 111
1956 SP EA 06:00:00 TS -17.59 152.83 517 517 O_____P__PP___ jtwc_sh SH111956 -17.00 152.60 -1 -17.82 152.36 -17.83 152.35 TC -17.04 152.54 1 9 116
1956 SP EA 09:00:00 TS -17.82 153.26 549 543 P_____P__PP___ SH111956 -17.21 153.20 -1 -18.13 152.73 -18.14 152.72 TC -17.28 153.20 1 9 122
1956 SP EA 11:00:00 TS -18.01 153.53 556 556 P_____P__PO___ SH111956 -17.45 153.54 -1 -18.34 152.97 -18.35 152.96 TC -17.50 153.60 2 10 128
1956 SP EA 12:00:00 TS -18.11 153.66 570 555 O_____P__PP___ jtwc_sh SH111956 -17.60 153.70 -1 -18.44 153.08 -18.45 153.08 TC -17.65 153.76 2 10 136
1956 SP EA 15:00:00 TS -18.49 154.03 555 541 P_____P__PP___ SH111956 -18.22 154.14 -1 -18.75 153.42 -18.77 153.43 TC -18.18 154.17 2 10 140
1956 SP EA 18:00:00 TS -18.89 154.35 548 540 O_____P__PP___ jtwc_sh SH111956 -18.90 154.50 -1 -19.05 153.74 -19.07 153.75 TC -18.80 154.51 2 9 143
1956 SP EA 21:00:00 TS -19.24 154.62 540 532 P_____P__PP___ SH111956 -19.44 154.82 -1 -19.33 154.03 -19.35 154.05 TC -19.42 154.81 2 8 144
1956 SP EA 23:00:00 TS -19.45 154.78 986 bom 533 533 P_____O__PO___ SH111956 -19.75 155.01 -1 -19.50 154.20 986 -19.52 154.22 TC -19.80 155.00 1 8 144
1956 SP EA 1956-01-25 00:00:00 TS -19.55 154.86 541 528 O_____P__OP___ jtwc_sh SH111956 -19.90 155.10 -1 -19.57 154.27 -19.60 154.30 TC 50 986 -19.95 155.10 1 7 142
1956 SP EA 03:00:00 TS -19.82 155.09 538 532 P_____P__PP___ SH111956 -20.33 155.35 -1 -19.77 154.47 -19.79 154.49 TC -20.35 155.39 1 7 141
1956 SP EA 06:00:00 TS -20.11 155.35 bom 537 537 O_____O__OP___ jtwc_sh SH111956 -20.70 155.60 -1 -20.00 154.70 -20.00 154.70 TC -20.70 155.66 1 9 139
1956 SP EA 09:00:00 TS -20.47 155.68 540 530 P_____P__PP___ SH111956 -21.02 155.90 -1 -20.29 155.00 -20.28 154.99 TC -21.01 155.93 1 10 139
1956 SP EA 11:00:00 TS -20.74 155.93 530 516 P_____P__PO___ SH111956 -21.21 156.10 -1 -20.51 155.24 -20.50 155.23 TC -21.20 156.10 1 11 139
1956 SP EA 12:00:00 TS -20.88 156.06 521 503 O_____P__PP___ jtwc_sh SH111956 -21.30 156.20 -1 -20.63 155.36 -20.62 155.36 TC -21.29 156.18 1 11 141
1956 SP EA 15:00:00 TS -21.33 156.45 503 489 P_____P__PP___ SH111956 -21.55 156.45 -1 -21.01 155.77 -21.02 155.78 TC -21.54 156.43 1 12 141
1956 SP EA 18:00:00 TS -21.78 156.84 489 489 O_____P__PP___ jtwc_sh SH111956 -21.80 156.70 -1 -21.43 156.21 -21.45 156.23 TC -21.79 156.68 1 12 139
1956 SP EA 21:00:00 TS -22.20 157.25 500 494 P_____P__PP___ SH111956 -22.06 156.96 -1 -21.88 156.68 -21.91 156.71 TC -22.07 156.97 1 11 137
1956 SP EA 23:00:00 TS -22.48 157.53 968 bom 498 498 P_____O__PO___ SH111956 -22.27 157.17 -1 -22.20 157.00 968 4 -22.24 157.04 TC -22.30 157.20 2 12 138
1956 SP EA 1956-01-26 00:00:00 TS -22.63 157.68 510 505 O_____P__OP___ jtwc_sh SH111956 -22.40 157.30 -1 -22.36 157.17 -22.40 157.20 TC 75 968 -22.43 157.33 2 12 140
1956 SP EA 03:00:00 TS -23.11 158.12 522 522 P_____P__PP___ SH111956 -22.86 157.77 -1 -22.86 157.72 -22.90 157.68 TC -22.87 157.77 2 13 141
1956 SP EA 06:00:00 TS -23.62 158.54 539 539 O_____P__PP___ jtwc_sh SH111956 -23.40 158.30 -1 -23.39 158.30 -23.41 158.16 TC -23.38 158.26 2 13 145
1956 SP EA 09:00:00 TS -24.14 158.92 564 562 P_____P__PP___ SH111956 -23.93 158.81 -1 -23.94 158.88 -23.93 158.64 TC -23.92 158.76 2 13 147
1956 SP EA 11:00:00 TS -24.50 159.15 587 586 P_____P__PO___ SH111956 -24.30 159.14 -1 -24.32 159.26 -24.28 158.95 TC -24.30 159.10 1 13 149
1956 SP EA 12:00:00 TS -24.68 159.27 595 595 O_____P__PP___ jtwc_sh SH111956 -24.50 159.30 -1 -24.50 159.44 -24.46 159.11 TC -24.50 159.28 1 13 150
1956 SP EA 15:00:00 TS -25.24 159.63 624 624 P_____P__PP___ SH111956 -25.15 159.76 -1 -25.07 159.97 -24.99 159.58 TC -25.11 159.82 1 13 151
1956 SP EA 18:00:00 TS -25.81 159.97 668 668 O_____P__PP___ jtwc_sh SH111956 -25.80 160.20 -1 -25.62 160.43 -25.52 160.05 TC -25.73 160.34 1 13 153
1956 SP MM 21:00:00 TS -26.40 160.28 691 687 P_____P__PP___ SH111956 -26.39 160.70 -1 -26.16 160.81 -26.06 160.52 TC -26.33 160.78 1 13 156
1956 SP MM 23:00:00 TS -26.78 160.46 1000 bom 697 694 P_____O__PO___ SH111956 -26.74 160.99 -1 -26.50 161.00 1000 -26.42 160.84 TC -26.70 161.00 1 12 160
1956 SP MM 1956-01-27 00:00:00 TS -26.97 160.52 692 689 O_____P__OP___ jtwc_sh SH111956 -26.90 161.10 -1 -26.67 161.08 -26.60 161.00 TC 30 1000 -26.87 161.08 1 11 166
1956 SP MM 03:00:00 TS -27.47 160.65 701 696 P_____P___P___ SH111956 -27.32 161.28 -1 -27.15 161.22 TC -27.33 161.23 1 10 168
1956 SP MM 06:00:00 TS -27.91 160.73 696 695 O_____P___P___ jtwc_sh SH111956 -27.70 161.30 -1 -27.61 161.26 TC -27.74 161.27 1 8 172
1956 SP MM 09:00:00 TS -28.29 160.78 703 702 P_____P___P___ SH111956 -28.10 161.28 -1 -28.04 161.21 TC -28.14 161.24 1 7 175
1956 SP MM 11:00:00 TS -28.53 160.80 702 701 P_____P___O___ SH111956 -28.37 161.23 -1 -28.32 161.13 TC -28.40 161.20 1 7 176
1956 SP MM 12:00:00 TS -28.64 160.80 701 699 O_____P___P___ jtwc_sh SH111956 -28.50 161.20 -1 -28.46 161.08 TC -28.51 161.18 1 7 178
1956 SP MM 15:00:00 TS -29.00 160.82 699 699 P_____P___P___ SH111956 -28.89 161.10 -1 -28.86 160.89 TC -28.83 161.09 1 7 179
1956 SP MM 18:00:00 TS -29.37 160.83 700 700 O_____P___P___ jtwc_sh SH111956 -29.30 161.00 -1 -29.26 160.65 TC -29.17 160.98 1 7 178
1956 SP MM 21:00:00 TS -29.71 160.82 702 702 P_____P___P___ SH111956 -29.68 160.92 -1 -29.64 160.39 TC -29.62 160.91 1 7 0
1956 SP MM 23:00:00 TS -29.97 160.85 996 bom 716 716 P_____O___O___ SH111956 -30.00 160.90 -1 -29.90 160.20 996 TC -30.00 160.90 1 9 172
1956 SP MM 1956-01-28 00:00:00 TS -30.13 160.89 718 718 O_________P___ jtwc_sh SH111956 -30.20 160.90 -1 -30.24 160.89 1 11 172
1956 SP MM 03:00:00 TS -30.69 160.97 740 740 P_________P___ SH111956 -31.02 160.95 -1 -31.09 160.91 1 13 171
1956 SP MM 06:00:00 TS -31.41 161.14 759 759 O_________P___ jtwc_sh SH111956 -32.00 161.10 -1 -32.06 161.04 1 17 167
1956 SP MM 09:00:00 TS -32.32 161.40 795 795 P_________P___ SH111956 -33.01 161.30 -1 -33.05 161.31 1 20 164
1956 SP MM 11:00:00 TS -32.98 161.66 836 836 P_________O___ SH111956 -33.68 161.54 -1 -33.70 161.60 2 20 159
1956 SP MM 12:00:00 TS -33.26 161.83 852 852 O_________P___ jtwc_sh SH111956 -34.00 161.70 -1 -34.01 161.78 2 21 153
1956 SP MM 15:00:00 TS -34.24 162.42 932 876 P_________P___ SH111956 -34.85 162.42 -1 -34.87 162.48 2 22 152
1956 SP MM 18:00:00 TS -35.19 163.08 868 823 O_________P___ jtwc_sh SH111956 -35.60 163.20 -1 -35.67 163.34 2 21 150
1956 SP MM 21:00:00 TS -36.07 163.69 825 807 P_________P___ SH111956 -36.24 163.72 -1 -36.42 164.31 2 20 151
1956 SP MM 23:00:00 TS -36.64 164.07 801 799 P_________O___ SH111956 -36.67 164.03 -1 -36.90 165.00 1 19 154
1956 SP MM 1956-01-29 00:00:00 TS -36.91 164.20 802 720 O_____________ jtwc_sh SH131956 -36.90 164.20 -1 1 19 151
1956 SP MM 03:00:00 TS -37.77 164.84 714 617 P_____________ SH131956 -37.70 164.80 -1 1 20 149
1956 SP MM 06:00:00 TS -38.60 165.50 617 O_____________ jtwc_sh SH131956 -38.60 165.50 -1 1 20 148